createdAt,value
2019-03-21T00:00:27.077Z,2.50
2019-03-21T00:02:55.676Z,2.60
2019-03-21T00:05:26.422Z,1.80
2019-03-21T00:07:55.046Z,2.40
2019-03-21T00:11:27.084Z,2.40
2019-03-21T00:14:07.066Z,2.40
2019-03-21T00:16:30.659Z,2.40
2019-03-21T00:18:59.361Z,2.30
2019-03-21T00:21:27.923Z,1.90
2019-03-21T00:23:56.494Z,2.30
2019-03-21T00:26:25.236Z,2.20
2019-03-21T00:28:53.987Z,2.10
2019-03-21T00:31:22.573Z,2.20
2019-03-21T00:33:51.178Z,2.20
2019-03-21T00:36:19.830Z,2.20
2019-03-21T00:38:48.413Z,2.50
2019-03-21T00:41:17.101Z,2.20
2019-03-21T00:43:45.781Z,2.20
2019-03-21T00:46:14.349Z,2.20
2019-03-21T00:48:42.954Z,2.20
2019-03-21T00:51:11.481Z,2.20
2019-03-21T00:53:40.148Z,2.20
2019-03-21T00:56:08.735Z,2.10
2019-03-21T00:58:37.373Z,2.10
2019-03-21T01:01:06.063Z,2.10
2019-03-21T01:03:34.722Z,2.10
2019-03-21T01:06:03.550Z,2.00
2019-03-21T01:08:32.117Z,2.00
2019-03-21T01:11:00.722Z,1.90
2019-03-21T01:13:31.988Z,1.90
2019-03-21T01:16:00.629Z,1.90
2019-03-21T01:18:29.235Z,1.80
2019-03-21T01:20:57.801Z,1.80
2019-03-21T01:23:33.503Z,1.80
2019-03-21T01:26:02.510Z,1.70
2019-03-21T01:28:31.071Z,2.10
2019-03-21T01:31:00.206Z,1.50
2019-03-21T01:33:28.772Z,1.50
2019-03-21T01:35:57.417Z,1.50
2019-03-21T01:38:25.974Z,1.80
2019-03-21T01:43:22.852Z,1.40
2019-03-21T01:45:51.422Z,1.40
2019-03-21T01:48:20.074Z,1.50
2019-03-21T01:50:48.596Z,1.40
2019-03-21T01:53:17.193Z,2.20
2019-03-21T01:55:45.749Z,1.70
2019-03-21T01:58:14.669Z,1.40
2019-03-21T02:00:43.385Z,1.40
2019-03-21T02:03:12.194Z,1.40
2019-03-21T02:05:40.740Z,1.40
2019-03-21T02:08:09.367Z,1.40
2019-03-21T02:10:38.001Z,1.30
2019-03-21T02:13:06.665Z,1.20
2019-03-21T02:15:35.211Z,1.20
2019-03-21T02:18:03.848Z,1.50
2019-03-21T02:20:32.443Z,1.20
2019-03-21T02:23:01.044Z,1.20
2019-03-21T02:25:30.048Z,1.20
2019-03-21T02:27:58.849Z,1.50
2019-03-21T02:30:30.659Z,1.60
2019-03-21T02:33:07.324Z,1.20
2019-03-21T02:35:36.140Z,1.20
2019-03-21T02:38:04.765Z,1.20
2019-03-21T02:40:33.341Z,1.40
2019-03-21T02:43:01.964Z,1.20
2019-03-21T02:45:30.517Z,1.10
2019-03-21T02:47:59.099Z,1.00
2019-03-21T02:50:31.066Z,1.20
2019-03-21T02:52:59.648Z,1.00
2019-03-21T02:55:28.320Z,1.10
2019-03-21T02:57:56.962Z,0.90
2019-03-21T03:00:26.527Z,0.90
2019-03-21T03:02:57.342Z,1.00
2019-03-21T03:05:27.805Z,0.90
2019-03-21T03:10:46.911Z,1.30
2019-03-21T03:13:15.513Z,0.90
2019-03-21T03:15:44.170Z,1.10
2019-03-21T03:18:12.761Z,0.90
2019-03-21T03:20:54.274Z,0.90
2019-03-21T03:23:22.853Z,0.90
2019-03-21T03:25:51.828Z,1.10
2019-03-21T03:28:23.010Z,0.90
2019-03-21T03:30:52.612Z,0.90
2019-03-21T03:33:21.149Z,0.90
2019-03-21T03:35:50.032Z,0.90
2019-03-21T03:38:18.636Z,0.80
2019-03-21T03:40:51.274Z,0.80
2019-03-21T03:43:19.874Z,0.70
2019-03-21T03:45:48.484Z,0.70
2019-03-21T03:48:19.746Z,0.70
2019-03-21T03:50:47.498Z,0.70
2019-03-21T03:53:16.142Z,0.70
2019-03-21T03:55:44.962Z,0.70
2019-03-21T03:58:15.358Z,0.70
2019-03-21T04:00:43.981Z,1.20
2019-03-21T04:03:12.639Z,0.70
2019-03-21T04:05:41.236Z,0.70
2019-03-21T04:08:09.803Z,1.10
2019-03-21T04:10:41.483Z,0.70
2019-03-21T04:13:10.062Z,0.70
2019-03-21T04:15:51.640Z,0.70
2019-03-21T04:18:09.213Z,0.70
2019-03-21T04:20:39.757Z,1.40
2019-03-21T04:23:08.395Z,0.30
2019-03-21T04:25:53.257Z,1.10
2019-03-21T04:28:21.961Z,0.50
2019-03-21T04:30:50.613Z,0.50
2019-03-21T04:33:22.448Z,0.50
2019-03-21T04:35:49.883Z,0.70
2019-03-21T04:38:18.514Z,0.40
2019-03-21T04:40:47.121Z,0.30
2019-03-21T04:43:15.719Z,0.20
2019-03-21T04:45:44.300Z,0.80
2019-03-21T04:48:12.940Z,0.70
2019-03-21T04:50:41.631Z,0.20
2019-03-21T04:53:10.276Z,0.60
2019-03-21T04:55:38.843Z,0.10
2019-03-21T04:58:07.489Z,0.40
2019-03-21T05:00:37.105Z,0.10
2019-03-21T05:03:06.690Z,0.40
2019-03-21T05:05:35.242Z,0.10
2019-03-21T05:08:03.900Z,0.20
2019-03-21T05:10:32.465Z,0.20
2019-03-21T05:13:01.081Z,0.20
2019-03-21T05:15:35.943Z,0.40
2019-03-21T05:18:15.100Z,0.30
2019-03-21T05:20:43.669Z,0.30
2019-03-21T05:23:12.273Z,0.30
2019-03-21T05:25:41.108Z,0.30
2019-03-21T05:28:09.742Z,0.30
2019-03-21T05:30:47.044Z,0.30
2019-03-21T05:33:15.602Z,0.90
2019-03-21T05:35:44.378Z,0.40
2019-03-21T05:38:13.061Z,0.40
2019-03-21T05:40:41.697Z,0.30
2019-03-21T05:43:17.836Z,0.30
2019-03-21T05:45:46.426Z,0.30
2019-03-21T05:48:15.014Z,0.30
2019-03-21T05:50:43.592Z,0.30
2019-03-21T05:53:12.249Z,0.90
2019-03-21T05:55:40.855Z,1.10
2019-03-21T05:58:09.529Z,0.50
2019-03-21T06:00:40.846Z,0.60
2019-03-21T06:03:19.674Z,1.10
2019-03-21T06:05:55.640Z,0.60
2019-03-21T06:08:29.306Z,0.60
2019-03-21T06:10:57.851Z,0.40
2019-03-21T06:13:26.436Z,1.50
2019-03-21T06:16:04.916Z,0.90
2019-03-21T06:19:24.465Z,1.00
2019-03-21T06:22:35.371Z,1.10
2019-03-21T06:26:03.253Z,1.20
2019-03-21T06:28:31.839Z,1.20
2019-03-21T06:31:00.455Z,1.30
2019-03-21T06:33:29.321Z,1.40
2019-03-21T06:35:57.923Z,1.50
2019-03-21T06:38:26.446Z,0.80
2019-03-21T06:40:55.036Z,1.70
2019-03-21T06:43:23.612Z,1.70
2019-03-21T06:45:52.202Z,2.10
2019-03-21T06:48:21.390Z,1.80
2019-03-21T06:50:49.954Z,1.90
2019-03-21T06:53:18.543Z,2.50
2019-03-21T06:55:47.170Z,2.20
2019-03-21T06:58:15.783Z,2.20
2019-03-21T07:00:44.420Z,2.20
2019-03-21T07:03:12.977Z,2.20
2019-03-21T07:05:41.579Z,2.40
2019-03-21T07:08:10.174Z,2.60
2019-03-21T07:10:38.768Z,2.70
2019-03-21T07:13:07.409Z,2.80
2019-03-21T07:15:35.953Z,3.00
2019-03-21T07:18:04.583Z,3.10
2019-03-21T07:20:33.132Z,3.60
2019-03-21T07:23:01.744Z,5.30
2019-03-21T07:25:30.321Z,7.20
2019-03-21T07:27:59.013Z,8.90
2019-03-21T07:30:27.605Z,10.50
2019-03-21T07:32:56.193Z,11.90
2019-03-21T07:35:24.787Z,13.40
2019-03-21T07:38:03.641Z,14.70
2019-03-21T07:40:32.247Z,15.80
2019-03-21T07:43:00.794Z,15.60
2019-03-21T07:45:29.374Z,16.00
2019-03-21T07:47:57.965Z,16.60
2019-03-21T07:50:26.532Z,17.30
2019-03-21T07:52:55.113Z,18.00
2019-03-21T07:55:23.649Z,19.10
2019-03-21T07:57:52.287Z,19.50
2019-03-21T08:00:20.834Z,20.10
2019-03-21T08:02:49.476Z,19.80
2019-03-21T08:05:18.410Z,19.90
2019-03-21T08:07:46.983Z,20.70
2019-03-21T08:10:15.620Z,21.50
2019-03-21T08:12:44.226Z,21.60
2019-03-21T08:15:13.110Z,21.30
2019-03-21T08:17:41.701Z,21.90
2019-03-21T08:20:12.952Z,22.10
2019-03-21T08:22:41.528Z,22.70
2019-03-21T08:25:10.791Z,23.00
2019-03-21T08:27:39.345Z,22.70
2019-03-21T08:30:14.894Z,23.00
2019-03-21T08:32:43.543Z,23.30
2019-03-21T08:35:12.098Z,23.40
2019-03-21T08:37:40.899Z,23.80
2019-03-21T08:40:09.687Z,24.40
2019-03-21T08:42:38.344Z,24.50
2019-03-21T08:45:07.129Z,24.20
2019-03-21T08:47:37.022Z,24.60
2019-03-21T08:50:06.352Z,24.90
2019-03-21T08:52:34.942Z,23.80
2019-03-21T08:55:03.689Z,24.20
2019-03-21T08:57:32.273Z,24.10
2019-03-21T09:00:00.918Z,24.20
2019-03-21T09:02:29.477Z,24.50
2019-03-21T09:04:59.747Z,24.70
2019-03-21T09:07:28.529Z,24.20
2019-03-21T09:09:57.113Z,24.10
2019-03-21T09:12:25.754Z,24.30
2019-03-21T09:14:54.309Z,24.10
2019-03-21T09:17:22.992Z,23.80
2019-03-21T09:19:51.571Z,24.40
2019-03-21T09:22:20.199Z,25.00
2019-03-21T09:24:48.820Z,25.00
2019-03-21T09:27:22.674Z,25.40
2019-03-21T09:29:53.772Z,25.50
2019-03-21T09:32:21.883Z,26.00
2019-03-21T09:34:51.275Z,25.50
2019-03-21T09:37:25.155Z,24.60
2019-03-21T09:39:53.718Z,23.20
2019-03-21T09:42:22.320Z,21.50
2019-03-21T09:44:50.889Z,20.50
2019-03-21T09:47:24.541Z,19.40
2019-03-21T09:49:53.109Z,18.40
2019-03-21T09:52:22.902Z,17.70
2019-03-21T09:54:51.498Z,17.10
2019-03-21T09:57:20.100Z,16.50
2019-03-21T09:59:48.651Z,16.20
2019-03-21T10:02:17.256Z,15.90
2019-03-21T10:04:45.812Z,15.70
2019-03-21T10:07:14.396Z,14.90
2019-03-21T10:09:43.228Z,14.90
2019-03-21T10:12:11.761Z,14.40
2019-03-21T10:14:40.363Z,14.20
2019-03-21T10:17:19.260Z,13.80
2019-03-21T10:19:48.527Z,14.30
2019-03-21T10:22:17.262Z,14.40
2019-03-21T10:24:45.841Z,14.50
2019-03-21T10:27:14.426Z,14.40
2019-03-21T10:29:42.978Z,14.50
2019-03-21T10:32:14.495Z,14.60
2019-03-21T10:34:42.039Z,14.60
2019-03-21T10:37:10.702Z,14.60
2019-03-21T10:39:39.309Z,15.30
2019-03-21T10:42:07.966Z,16.90
2019-03-21T10:44:36.593Z,18.90
2019-03-21T10:47:05.139Z,20.10
2019-03-21T10:49:33.737Z,21.20
2019-03-21T10:52:02.319Z,22.30
2019-03-21T10:54:30.982Z,22.90
2019-03-21T10:56:59.517Z,23.40
2019-03-21T10:59:28.493Z,23.50
2019-03-21T11:02:06.855Z,24.50
2019-03-21T11:04:27.653Z,25.00
2019-03-21T11:07:00.512Z,25.40
2019-03-21T11:09:29.735Z,24.60
2019-03-21T11:11:58.361Z,24.50
2019-03-21T11:14:27.023Z,25.20
2019-03-21T11:16:56.396Z,26.00
2019-03-21T11:19:24.946Z,26.80
2019-03-21T11:21:53.535Z,25.80
2019-03-21T11:24:22.219Z,25.40
2019-03-21T11:26:51.054Z,27.20
2019-03-21T11:29:19.654Z,28.20
2019-03-21T11:31:48.239Z,28.70
2019-03-21T11:34:16.829Z,28.80
2019-03-21T11:36:45.667Z,28.70
2019-03-21T11:39:14.216Z,28.70
2019-03-21T11:41:42.907Z,28.60
2019-03-21T11:44:11.478Z,28.00
2019-03-21T11:46:45.163Z,28.00
2019-03-21T11:49:13.729Z,27.50
2019-03-21T11:51:42.290Z,27.50
2019-03-21T11:54:10.934Z,27.50
2019-03-21T11:56:39.514Z,27.70
2019-03-21T11:59:08.126Z,28.00
2019-03-21T12:01:36.763Z,28.40
2019-03-21T12:04:05.426Z,28.70
2019-03-21T12:06:34.124Z,28.50
2019-03-21T12:09:04.276Z,27.90
2019-03-21T12:11:32.900Z,28.50
2019-03-21T12:14:01.503Z,27.80
2019-03-21T12:16:31.024Z,27.40
2019-03-21T12:18:59.565Z,28.00
2019-03-21T12:21:28.172Z,28.50
2019-03-21T12:23:56.786Z,28.80
2019-03-21T12:26:25.353Z,28.80
2019-03-21T12:28:53.908Z,28.90
2019-03-21T12:31:22.475Z,29.00
2019-03-21T12:33:51.081Z,29.30
2019-03-21T12:36:25.981Z,29.50
2019-03-21T12:38:54.590Z,29.80
2019-03-21T12:41:23.156Z,29.10
2019-03-21T12:43:51.740Z,29.10
2019-03-21T12:46:25.511Z,28.90
2019-03-21T12:48:54.196Z,28.70
2019-03-21T12:51:22.776Z,28.10
2019-03-21T12:53:51.411Z,28.40
2019-03-21T12:56:21.569Z,28.50
2019-03-21T12:58:50.155Z,28.20
2019-03-21T13:01:18.786Z,28.60
2019-03-21T13:03:47.422Z,28.30
2019-03-21T13:06:16.214Z,28.50
2019-03-21T13:08:44.739Z,27.30
2019-03-21T13:11:13.328Z,27.40
2019-03-21T13:13:41.976Z,27.50
2019-03-21T13:16:15.596Z,27.00
2019-03-21T13:18:44.151Z,27.80
2019-03-21T13:21:12.825Z,27.30
2019-03-21T13:23:41.410Z,27.30
2019-03-21T13:26:10.040Z,27.60
2019-03-21T13:28:38.613Z,26.70
2019-03-21T13:31:07.338Z,27.00
2019-03-21T13:33:35.922Z,26.70
2019-03-21T13:36:04.498Z,26.70
2019-03-21T13:38:33.066Z,26.40
2019-03-21T13:41:01.708Z,27.00
2019-03-21T13:43:30.336Z,26.70
2019-03-21T13:45:59.176Z,26.00
2019-03-21T13:48:27.767Z,26.40
2019-03-21T13:50:56.374Z,26.50
2019-03-21T13:53:24.950Z,26.40
2019-03-21T13:55:53.801Z,26.60
2019-03-21T13:58:22.393Z,26.80
2019-03-21T14:00:50.999Z,26.30
2019-03-21T14:03:25.103Z,26.50
2019-03-21T14:05:50.138Z,26.30
2019-03-21T14:08:18.771Z,25.90
2019-03-21T14:10:47.318Z,26.30
2019-03-21T14:13:15.930Z,26.50
2019-03-21T14:15:44.497Z,25.80
2019-03-21T14:18:14.310Z,25.90
2019-03-21T14:20:42.937Z,25.90
2019-03-21T14:23:16.851Z,25.90
2019-03-21T14:25:42.009Z,26.10
2019-03-21T14:28:10.568Z,26.10
2019-03-21T14:30:39.214Z,25.80
2019-03-21T14:33:08.460Z,26.20
2019-03-21T14:35:37.170Z,25.90
2019-03-21T14:38:05.777Z,25.80
2019-03-21T14:40:36.949Z,26.20
2019-03-21T14:43:05.884Z,26.10
2019-03-21T14:45:34.475Z,26.00
2019-03-21T14:48:03.142Z,25.90
2019-03-21T14:50:31.778Z,25.60
2019-03-21T14:53:00.422Z,24.90
2019-03-21T14:55:29.026Z,24.50
2019-03-21T14:57:57.586Z,24.40
2019-03-21T15:00:26.279Z,24.40
2019-03-21T15:02:54.882Z,24.20
2019-03-21T15:05:23.518Z,23.50
2019-03-21T15:07:52.161Z,23.40
2019-03-21T15:10:20.750Z,23.50
2019-03-21T15:12:49.366Z,23.60
2019-03-21T15:15:18.075Z,23.40
2019-03-21T15:17:46.695Z,23.50
2019-03-21T15:20:16.329Z,23.40
2019-03-21T15:22:44.914Z,23.20
2019-03-21T15:25:13.746Z,23.20
2019-03-21T15:27:42.389Z,23.20
2019-03-21T15:30:14.815Z,23.20
2019-03-21T15:32:43.578Z,23.20
2019-03-21T15:35:12.782Z,22.90
2019-03-21T15:37:41.455Z,22.40
2019-03-21T15:40:14.895Z,22.30
2019-03-21T15:42:43.520Z,22.20
2019-03-21T15:45:22.217Z,22.50
2019-03-21T15:47:45.529Z,22.10
2019-03-21T15:50:29.131Z,22.10
2019-03-21T15:52:57.879Z,21.80
2019-03-21T15:55:26.509Z,21.40
2019-03-21T15:57:55.117Z,21.50
2019-03-21T16:00:34.564Z,21.10
2019-03-21T16:03:04.297Z,20.70
2019-03-21T16:05:32.900Z,20.50
2019-03-21T16:08:01.525Z,20.30
2019-03-21T16:10:30.080Z,19.70
2019-03-21T16:12:58.695Z,19.90
2019-03-21T16:15:27.324Z,20.00
2019-03-21T16:17:55.944Z,19.60
2019-03-21T16:20:24.492Z,19.80
2019-03-21T16:22:53.128Z,19.80
2019-03-21T16:25:21.811Z,19.80
2019-03-21T16:27:50.452Z,19.60
2019-03-21T16:30:19.158Z,19.60
2019-03-21T16:32:47.817Z,19.50
2019-03-21T16:35:16.462Z,19.40
2019-03-21T16:37:45.078Z,19.20
2019-03-21T16:40:13.898Z,19.00
2019-03-21T16:42:42.554Z,18.80
2019-03-21T16:45:14.190Z,18.80
2019-03-21T16:47:42.741Z,18.50
2019-03-21T16:50:11.547Z,18.20
2019-03-21T16:52:40.138Z,18.00
2019-03-21T16:55:11.403Z,17.80
2019-03-21T16:57:40.108Z,17.70
2019-03-21T17:00:08.938Z,17.40
2019-03-21T17:02:37.553Z,17.10
2019-03-21T17:05:06.408Z,16.90
2019-03-21T17:07:35.067Z,16.70
2019-03-21T17:10:05.115Z,16.40
2019-03-21T17:12:33.985Z,16.20
2019-03-21T17:15:02.600Z,16.00
2019-03-21T17:17:31.356Z,15.90
2019-03-21T17:19:59.917Z,15.70
2019-03-21T17:22:28.640Z,15.50
2019-03-21T17:24:57.233Z,15.30
2019-03-21T17:27:26.155Z,15.10
2019-03-21T17:29:54.781Z,14.90
2019-03-21T17:32:23.419Z,14.70
2019-03-21T17:34:52.041Z,14.50
2019-03-21T17:37:20.768Z,14.30
2019-03-21T17:39:52.252Z,14.10
2019-03-21T17:42:21.245Z,13.90
2019-03-21T17:44:51.986Z,13.70
2019-03-21T17:47:20.781Z,13.50
2019-03-21T17:49:49.369Z,13.30
2019-03-21T17:52:18.020Z,13.20
2019-03-21T17:54:46.588Z,12.70
2019-03-21T17:57:15.213Z,12.90
2019-03-21T17:59:43.790Z,12.80
2019-03-21T18:02:12.547Z,12.60
2019-03-21T18:04:41.556Z,12.50
2019-03-21T18:07:10.490Z,12.40
2019-03-21T18:09:39.075Z,12.30
2019-03-21T18:12:08.001Z,12.10
2019-03-21T18:14:36.608Z,12.00
2019-03-21T18:17:05.270Z,11.90
2019-03-21T18:19:33.900Z,11.80
2019-03-21T18:22:02.509Z,11.70
2019-03-21T18:24:31.152Z,11.60
2019-03-21T18:27:00.093Z,11.40
2019-03-21T18:29:28.735Z,11.40
2019-03-21T18:31:57.848Z,11.30
2019-03-21T18:34:26.508Z,11.20
2019-03-21T18:36:55.384Z,11.10
2019-03-21T18:39:24.036Z,11.00
2019-03-21T18:41:52.717Z,10.80
2019-03-21T18:44:28.775Z,10.80
2019-03-21T18:47:02.158Z,10.70
2019-03-21T18:49:31.982Z,10.70
2019-03-21T18:52:00.566Z,10.60
2019-03-21T18:54:36.669Z,10.40
2019-03-21T18:57:05.435Z,10.30
2019-03-21T18:59:34.083Z,10.30
2019-03-21T19:02:02.674Z,10.20
2019-03-21T19:04:31.324Z,10.20
2019-03-21T19:06:59.989Z,10.10
2019-03-21T19:09:28.683Z,10.00
2019-03-21T19:11:59.022Z,9.90
2019-03-21T19:14:30.106Z,9.90
2019-03-21T19:16:58.783Z,9.80
2019-03-21T19:19:27.867Z,9.70
2019-03-21T19:21:56.493Z,9.60
2019-03-21T19:24:25.109Z,9.50
2019-03-21T19:26:59.050Z,9.30
2019-03-21T19:29:27.643Z,9.30
2019-03-21T19:31:56.242Z,9.20
2019-03-21T19:34:24.899Z,9.20
2019-03-21T19:36:58.662Z,9.10
2019-03-21T19:39:27.316Z,9.10
2019-03-21T19:41:55.897Z,9.10
2019-03-21T19:44:24.544Z,9.00
2019-03-21T19:47:03.512Z,8.90
2019-03-21T19:49:32.208Z,8.80
2019-03-21T19:52:00.851Z,8.80
2019-03-21T19:54:29.469Z,8.70
2019-03-21T19:56:58.252Z,8.70
2019-03-21T19:59:29.612Z,8.60
2019-03-21T20:01:58.247Z,8.70
2019-03-21T20:04:26.942Z,8.50
2019-03-21T20:07:00.622Z,8.50
2019-03-21T20:09:29.257Z,8.50
2019-03-21T20:11:57.886Z,8.40
2019-03-21T20:14:26.576Z,8.10
2019-03-21T20:16:55.251Z,8.30
2019-03-21T20:19:23.958Z,8.30
2019-03-21T20:21:52.552Z,8.20
2019-03-21T20:24:21.192Z,8.20
2019-03-21T20:26:49.809Z,8.10
2019-03-21T20:29:18.466Z,8.10
2019-03-21T20:31:47.118Z,8.00
2019-03-21T20:34:15.791Z,8.00
2019-03-21T20:36:44.377Z,7.90
2019-03-21T20:39:13.073Z,7.90
2019-03-21T20:41:41.677Z,7.80
2019-03-21T20:44:15.144Z,7.80
2019-03-21T20:46:40.776Z,7.70
2019-03-21T20:49:09.431Z,7.70
2019-03-21T20:51:38.068Z,7.60
2019-03-21T20:54:06.704Z,7.60
2019-03-21T20:56:35.274Z,8.00
2019-03-21T20:59:03.879Z,7.50
2019-03-21T21:01:32.505Z,7.50
2019-03-21T21:04:01.183Z,7.40
2019-03-21T21:06:29.775Z,7.40
2019-03-21T21:08:58.447Z,7.40
2019-03-21T21:11:27.028Z,7.30
2019-03-21T21:13:55.611Z,7.30
2019-03-21T21:16:24.245Z,7.30
2019-03-21T21:18:52.911Z,7.20
2019-03-21T21:21:21.487Z,7.20
2019-03-21T21:23:50.404Z,7.10
2019-03-21T21:26:19.225Z,7.10
2019-03-21T21:28:47.844Z,7.10
2019-03-21T21:31:16.477Z,6.80
2019-03-21T21:33:45.088Z,7.00
2019-03-21T21:36:48.830Z,7.00
2019-03-21T21:39:17.393Z,6.90
2019-03-21T21:41:46.067Z,6.80
2019-03-21T21:44:14.669Z,6.70
2019-03-21T21:46:43.303Z,6.70
2019-03-21T21:49:13.103Z,6.60
2019-03-21T21:51:41.804Z,6.60
2019-03-21T21:54:10.419Z,6.50
2019-03-21T21:56:39.000Z,6.40
2019-03-21T21:59:07.611Z,6.30
2019-03-21T22:01:36.232Z,6.30
2019-03-21T22:04:05.752Z,6.20
2019-03-21T22:06:35.308Z,6.30
2019-03-21T22:09:06.334Z,6.20
2019-03-21T22:11:34.908Z,6.20
2019-03-21T22:14:04.032Z,6.30
2019-03-21T22:16:32.587Z,5.90
2019-03-21T22:19:01.153Z,6.60
2019-03-21T22:21:29.765Z,6.30
2019-03-21T22:23:58.381Z,6.30
2019-03-21T22:26:29.833Z,6.30
2019-03-21T22:28:57.479Z,6.20
2019-03-21T22:31:26.025Z,6.20
2019-03-21T22:33:54.580Z,6.10
2019-03-21T22:36:23.199Z,6.10
2019-03-21T22:38:51.780Z,6.10
2019-03-21T22:41:20.481Z,6.10
2019-03-21T22:43:49.074Z,6.00
2019-03-21T22:46:17.743Z,6.00
2019-03-21T22:48:46.271Z,5.90
2019-03-21T22:51:14.956Z,5.90
2019-03-21T22:53:43.512Z,6.00
2019-03-21T22:56:12.111Z,5.90
2019-03-21T22:58:40.739Z,5.80
2019-03-21T23:01:09.343Z,5.80
2019-03-21T23:03:37.824Z,5.40
2019-03-21T23:06:06.399Z,5.70
2019-03-21T23:08:34.881Z,6.10
2019-03-21T23:11:03.401Z,5.70
2019-03-21T23:13:31.929Z,5.60
2019-03-21T23:16:00.406Z,5.30
2019-03-21T23:18:28.934Z,5.60
2019-03-21T23:20:57.431Z,5.50
2019-03-21T23:23:25.943Z,5.90
2019-03-21T23:25:54.770Z,5.20
2019-03-21T23:28:23.369Z,5.50
2019-03-21T23:30:51.883Z,5.50
2019-03-21T23:33:20.466Z,5.40
2019-03-21T23:35:49.026Z,5.40
2019-03-21T23:38:17.526Z,5.40
2019-03-21T23:40:46.080Z,5.60
2019-03-21T23:43:14.607Z,5.20
2019-03-21T23:45:43.163Z,5.30
2019-03-21T23:48:11.671Z,5.30
2019-03-21T23:50:40.205Z,5.10
2019-03-21T23:53:08.732Z,5.30
2019-03-21T23:55:37.269Z,5.20
2019-03-21T23:58:05.795Z,5.20
